createdAt,value
2019-03-08T00:00:56.437Z,10.54
2019-03-08T00:06:02.384Z,10.41
2019-03-08T00:11:08.281Z,10.57
2019-03-08T00:16:14.291Z,10.48
2019-03-08T00:21:20.347Z,10.12
2019-03-08T00:26:26.857Z,10.14
2019-03-08T00:31:32.940Z,10.22
2019-03-08T00:36:39.019Z,10.26
2019-03-08T00:41:45.033Z,10.17
2019-03-08T00:46:51.948Z,10.08
2019-03-08T00:51:58.162Z,10.16
2019-03-08T00:57:04.887Z,9.87
2019-03-08T01:02:11.679Z,10.24
2019-03-08T01:07:17.691Z,9.98
2019-03-08T01:12:24.037Z,9.99
2019-03-08T01:17:30.463Z,9.98
2019-03-08T01:22:36.755Z,9.66
2019-03-08T01:28:08.779Z,9.54
2019-03-08T01:33:15.519Z,9.44
2019-03-08T01:38:21.773Z,9.31
2019-03-08T01:43:27.868Z,9.25
2019-03-08T01:48:33.940Z,9.15
2019-03-08T01:53:39.891Z,9.21
2019-03-08T01:58:45.299Z,9.04
2019-03-08T02:03:51.376Z,9.04
2019-03-08T02:08:57.300Z,8.97
2019-03-08T02:14:03.304Z,8.93
2019-03-08T02:19:09.542Z,8.93
2019-03-08T02:24:15.774Z,8.91
2019-03-08T02:29:22.299Z,8.79
2019-03-08T02:34:28.379Z,8.63
2019-03-08T02:39:34.853Z,8.50
2019-03-08T02:44:41.152Z,8.52
2019-03-08T02:49:47.170Z,8.59
2019-03-08T02:54:53.897Z,8.64
2019-03-08T03:00:00.299Z,8.62
2019-03-08T03:05:05.653Z,8.59
2019-03-08T03:10:11.829Z,8.54
2019-03-08T03:15:18.335Z,8.49
2019-03-08T03:20:24.510Z,8.56
2019-03-08T03:25:31.400Z,8.61
2019-03-08T03:30:37.742Z,8.55
2019-03-08T03:35:43.837Z,8.59
2019-03-08T03:40:50.491Z,8.66
2019-03-08T03:45:55.632Z,8.72
2019-03-08T03:51:02.282Z,8.73
2019-03-08T03:56:08.183Z,8.72
2019-03-08T04:01:28.296Z,8.74
2019-03-08T04:06:34.512Z,8.63
2019-03-08T04:11:40.828Z,8.72
2019-03-08T04:16:47.521Z,8.71
2019-03-08T04:21:53.775Z,8.68
2019-03-08T04:26:59.836Z,8.65
2019-03-08T04:32:05.883Z,8.61
2019-03-08T04:37:12.341Z,8.59
2019-03-08T04:42:18.616Z,8.57
2019-03-08T04:47:25.434Z,8.56
2019-03-08T04:52:31.759Z,8.59
2019-03-08T04:57:38.679Z,8.63
2019-03-08T05:02:45.215Z,8.68
2019-03-08T05:07:51.354Z,8.72
2019-03-08T05:12:57.520Z,8.67
2019-03-08T05:18:03.732Z,8.78
2019-03-08T05:23:09.670Z,8.78
2019-03-08T05:28:15.962Z,8.78
2019-03-08T05:33:22.235Z,8.88
2019-03-08T05:38:27.417Z,8.89
2019-03-08T05:43:33.406Z,8.83
2019-03-08T05:48:39.338Z,8.94
2019-03-08T05:53:45.589Z,9.08
2019-03-08T05:58:51.889Z,9.21
2019-03-08T06:03:58.022Z,9.29
2019-03-08T06:09:05.835Z,9.32
2019-03-08T06:14:10.658Z,9.29
2019-03-08T06:19:17.290Z,9.41
2019-03-08T06:24:23.312Z,9.38
2019-03-08T06:29:29.321Z,9.48
2019-03-08T06:34:35.560Z,9.45
2019-03-08T06:39:41.813Z,9.59
2019-03-08T06:44:48.372Z,9.65
2019-03-08T06:49:54.394Z,9.72
2019-03-08T06:55:00.770Z,9.76
2019-03-08T07:00:30.499Z,9.72
2019-03-08T07:05:36.770Z,9.87
2019-03-08T07:10:42.943Z,9.97
2019-03-08T07:15:48.883Z,10.02
2019-03-08T07:21:03.273Z,10.18
2019-03-08T07:26:27.083Z,10.35
2019-03-08T07:32:04.490Z,10.53
2019-03-08T07:37:29.663Z,10.59
2019-03-08T07:42:53.663Z,10.62
2019-03-08T07:48:22.018Z,10.63
2019-03-08T07:54:05.578Z,10.73
2019-03-08T07:59:26.277Z,10.88
2019-03-08T08:04:50.340Z,10.98
2019-03-08T08:10:21.447Z,11.05
2019-03-08T08:15:39.005Z,11.08
2019-03-08T08:21:03.307Z,11.20
2019-03-08T08:26:46.732Z,11.26
2019-03-08T08:32:17.883Z,11.18
2019-03-08T08:37:52.246Z,11.36
2019-03-08T08:43:22.840Z,11.24
2019-03-08T08:48:50.673Z,11.86
2019-03-08T08:54:18.248Z,12.24
2019-03-08T08:59:49.407Z,12.49
2019-03-08T09:05:26.520Z,12.30
2019-03-08T09:10:57.321Z,11.97
2019-03-08T09:16:22.107Z,12.40
2019-03-08T09:21:53.394Z,12.56
2019-03-08T09:27:14.768Z,12.69
2019-03-08T09:32:39.632Z,12.69
2019-03-08T09:37:59.866Z,12.96
2019-03-08T09:43:22.726Z,13.09
2019-03-08T09:48:48.849Z,12.89
2019-03-08T09:54:28.329Z,12.85
2019-03-08T10:00:02.598Z,13.15
2019-03-08T10:05:19.092Z,13.29
2019-03-08T10:10:36.457Z,13.23
2019-03-08T10:16:10.527Z,13.46
2019-03-08T10:21:53.589Z,13.01
2019-03-08T10:27:18.470Z,13.21
2019-03-08T10:32:42.190Z,13.15
2019-03-08T10:37:58.725Z,12.93
2019-03-08T10:43:10.075Z,13.13
2019-03-08T10:48:25.869Z,13.66
2019-03-08T10:53:40.185Z,13.83
2019-03-08T10:59:01.689Z,13.83
2019-03-08T11:04:25.599Z,13.90
2019-03-08T11:09:38.586Z,14.07
2019-03-08T11:15:02.868Z,13.91
2019-03-08T11:20:28.871Z,13.66
2019-03-08T11:25:52.236Z,13.63
2019-03-08T11:31:12.793Z,13.83
2019-03-08T11:36:38.107Z,13.77
2019-03-08T11:42:09.196Z,13.64
2019-03-08T11:47:39.993Z,13.88
2019-03-08T11:53:10.998Z,14.03
2019-03-08T11:58:38.919Z,13.88
2019-03-08T12:04:02.934Z,14.07
2019-03-08T12:09:51.859Z,14.06
2019-03-08T12:15:20.101Z,14.00
2019-03-08T12:20:44.887Z,14.22
2019-03-08T12:26:20.326Z,14.51
2019-03-08T12:31:45.406Z,14.69
2019-03-08T12:37:10.817Z,14.66
2019-03-08T12:42:39.037Z,13.77
2019-03-08T12:48:13.910Z,13.93
2019-03-08T12:53:51.022Z,14.35
2019-03-08T12:59:06.513Z,14.53
2019-03-08T13:04:46.529Z,14.36
2019-03-08T13:09:53.938Z,14.59
2019-03-08T13:15:02.375Z,14.24
2019-03-08T13:20:13.693Z,14.37
2019-03-08T13:25:19.815Z,14.44
2019-03-08T13:30:25.954Z,14.23
2019-03-08T13:35:32.709Z,14.53
2019-03-08T13:40:39.021Z,13.80
2019-03-08T13:45:45.655Z,13.91
2019-03-08T13:50:50.947Z,13.83
2019-03-08T13:55:57.054Z,13.82
2019-03-08T14:01:03.701Z,13.80
2019-03-08T14:06:10.335Z,13.68
2019-03-08T14:11:16.678Z,13.56
2019-03-08T14:16:22.849Z,13.68
2019-03-08T14:21:29.493Z,13.60
2019-03-08T14:26:36.075Z,13.45
2019-03-08T14:31:55.732Z,13.60
2019-03-08T14:37:01.870Z,13.53
2019-03-08T14:42:19.941Z,13.53
2019-03-08T14:47:33.342Z,13.53
2019-03-08T14:52:40.765Z,13.47
2019-03-08T14:57:47.474Z,13.57
2019-03-08T15:02:54.033Z,13.54
2019-03-08T15:08:00.523Z,13.28
2019-03-08T15:13:07.006Z,13.30
2019-03-08T15:18:14.738Z,13.35
2019-03-08T15:23:20.985Z,13.45
2019-03-08T15:28:27.006Z,13.52
2019-03-08T15:33:33.590Z,13.28
2019-03-08T15:38:39.660Z,13.16
2019-03-08T15:43:47.043Z,13.04
2019-03-08T15:48:54.831Z,12.62
2019-03-08T15:54:43.246Z,12.58
2019-03-08T15:59:49.210Z,12.35
2019-03-08T16:04:55.819Z,12.00
2019-03-08T16:10:02.235Z,12.19
2019-03-08T16:15:08.916Z,12.06
2019-03-08T16:20:16.593Z,11.70
2019-03-08T16:25:23.001Z,11.31
2019-03-08T16:30:33.932Z,11.08
2019-03-08T16:35:49.484Z,10.92
2019-03-08T16:41:25.599Z,10.95
2019-03-08T16:46:50.560Z,10.94
2019-03-08T16:52:18.730Z,10.99
2019-03-08T16:57:31.565Z,11.26
2019-03-08T17:02:59.053Z,11.00
2019-03-08T17:08:27.278Z,10.81
2019-03-08T17:13:52.313Z,10.54
2019-03-08T17:19:23.766Z,10.46
2019-03-08T17:24:47.822Z,10.19
2019-03-08T17:30:05.065Z,10.18
2019-03-08T17:35:36.400Z,10.10
2019-03-08T17:41:01.550Z,10.07
2019-03-08T17:48:27.583Z,10.27
2019-03-08T18:08:57.821Z,13.69
2019-03-08T18:14:25.162Z,18.04
2019-03-08T18:42:16.842Z,9.42
2019-03-08T18:47:40.356Z,9.45
2019-03-08T18:53:19.974Z,9.06
2019-03-08T19:00:10.255Z,9.38
2019-03-08T19:48:33.545Z,11.05
2019-03-08T19:54:04.416Z,10.01
2019-03-08T19:59:32.478Z,9.74
2019-03-08T20:02:44.087Z,9.68
2019-03-08T20:03:38.198Z,9.64
2019-03-08T20:04:38.020Z,9.60
2019-03-08T20:05:18.163Z,9.46
2019-03-08T20:06:00.343Z,9.59
2019-03-08T20:06:52.942Z,9.67
2019-03-08T20:07:52.025Z,9.65
2019-03-08T20:08:56.627Z,9.59
2019-03-08T20:10:07.780Z,9.66
2019-03-08T20:10:58.845Z,9.64
2019-03-08T20:12:00.239Z,9.66
2019-03-08T20:12:42.372Z,9.70
2019-03-08T20:13:26.587Z,9.76
2019-03-08T20:14:13.505Z,9.86
2019-03-08T20:15:06.090Z,9.75
2019-03-08T20:16:01.325Z,9.60
2019-03-08T20:16:53.825Z,9.64
2019-03-08T20:17:46.234Z,9.66
2019-03-08T20:18:37.081Z,9.59
2019-03-08T20:19:15.829Z,9.51
2019-03-08T20:20:20.820Z,9.40
2019-03-08T20:21:25.419Z,9.36
2019-03-08T20:22:17.954Z,9.25
2019-03-08T20:22:56.475Z,9.23
2019-03-08T20:23:47.529Z,9.22
2019-03-08T20:24:46.431Z,9.17
2019-03-08T20:25:51.174Z,9.08
2019-03-08T20:29:06.790Z,14.01
2019-03-08T20:29:59.093Z,14.80
2019-03-08T20:30:57.719Z,15.72
2019-03-08T20:31:53.682Z,16.30
2019-03-08T20:32:51.582Z,16.82
2019-03-08T20:33:42.645Z,17.23
2019-03-08T20:34:24.819Z,17.58
2019-03-08T20:35:17.205Z,17.87
2019-03-08T20:36:15.668Z,18.07
2019-03-08T20:37:11.201Z,18.30
2019-03-08T20:38:15.715Z,18.55
2019-03-08T20:39:06.324Z,18.76
2019-03-08T20:39:45.624Z,19.00
2019-03-08T20:40:40.874Z,19.18
2019-03-08T20:41:42.340Z,19.31
2019-03-08T20:42:38.172Z,19.49
2019-03-08T20:43:24.710Z,19.68
2019-03-08T20:44:02.155Z,19.83
2019-03-08T20:44:47.597Z,19.97
2019-03-08T20:46:03.361Z,20.24
2019-03-08T20:46:43.303Z,20.24
2019-03-08T20:47:20.545Z,20.35
2019-03-08T20:47:53.774Z,20.43
2019-03-08T20:48:26.847Z,20.48
2019-03-08T20:49:00.253Z,20.51
2019-03-08T20:49:33.321Z,20.55
2019-03-08T20:50:09.036Z,20.61
2019-03-08T20:50:42.302Z,20.67
2019-03-08T20:51:15.381Z,20.72
2019-03-08T20:51:49.157Z,20.77
2019-03-08T20:52:22.085Z,20.83
2019-03-08T20:52:55.233Z,20.89
2019-03-08T20:53:28.526Z,20.95
2019-03-08T20:59:11.709Z,22.30
2019-03-08T20:59:44.620Z,22.16
2019-03-08T21:00:18.226Z,22.05
2019-03-08T21:00:51.463Z,21.90
2019-03-08T21:02:59.108Z,15.21
2019-03-08T21:03:32.169Z,13.16
2019-03-08T21:04:05.401Z,12.49
2019-03-08T21:04:38.371Z,11.07
2019-03-08T21:05:11.981Z,10.46
2019-03-08T21:05:44.965Z,10.11
2019-03-08T21:06:18.391Z,9.81
2019-03-08T21:06:51.547Z,9.64
2019-03-08T21:07:24.896Z,9.42
2019-03-08T21:07:58.100Z,9.28
2019-03-08T21:08:31.180Z,9.13
2019-03-08T21:09:07.834Z,9.12
2019-03-08T21:09:41.397Z,9.05
2019-03-08T21:12:31.444Z,9.13
2019-03-08T21:13:05.063Z,9.07
2019-03-08T21:13:38.208Z,9.01
2019-03-08T21:14:11.155Z,8.85
2019-03-08T21:14:44.187Z,8.80
2019-03-08T21:15:25.089Z,8.82
2019-03-08T21:15:52.041Z,8.80
2019-03-08T21:16:25.080Z,8.72
2019-03-08T21:16:58.407Z,8.69
2019-03-08T21:17:31.371Z,8.53
2019-03-08T21:18:04.431Z,8.54
2019-03-08T21:23:43.569Z,8.54
2019-03-08T21:28:46.817Z,8.37
2019-03-08T21:33:49.848Z,8.21
2019-03-08T21:38:52.967Z,8.16
2019-03-08T21:43:55.911Z,8.11
2019-03-08T21:48:58.882Z,8.02
2019-03-08T21:54:01.915Z,7.99
2019-03-08T21:59:05.005Z,8.06
2019-03-08T22:04:46.115Z,8.20
2019-03-08T22:10:03.960Z,8.21
2019-03-08T22:15:07.357Z,8.23
2019-03-08T22:20:10.702Z,8.18
2019-03-08T22:25:13.776Z,8.18
2019-03-08T22:30:17.292Z,8.23
2019-03-08T22:35:20.569Z,8.17
2019-03-08T22:40:23.677Z,8.28
2019-03-08T22:45:26.820Z,8.16
2019-03-08T22:50:30.179Z,8.17
2019-03-08T22:55:33.184Z,8.16
2019-03-08T23:00:59.221Z,8.17
2019-03-08T23:06:02.425Z,8.25
2019-03-08T23:11:06.024Z,8.24
2019-03-08T23:16:09.224Z,8.25
2019-03-08T23:21:12.556Z,8.11
2019-03-08T23:26:15.705Z,8.09
2019-03-08T23:31:26.314Z,7.95
2019-03-08T23:36:29.566Z,7.91
2019-03-08T23:41:32.758Z,7.81
2019-03-08T23:46:35.988Z,7.67
2019-03-08T23:51:39.035Z,7.62
2019-03-08T23:56:42.544Z,7.48
